createdAt,value
2022-11-23T00:00:41.075Z,7.78
2022-11-23T00:03:07.613Z,7.80
2022-11-23T00:05:34.512Z,7.82
2022-11-23T00:08:01.175Z,7.82
2022-11-23T00:10:27.654Z,7.84
2022-11-23T00:12:54.237Z,7.86
2022-11-23T00:15:20.769Z,7.86
2022-11-23T00:17:48.499Z,7.86
2022-11-23T00:20:15.401Z,7.87
2022-11-23T00:22:42.066Z,7.86
2022-11-23T00:25:08.969Z,7.89
2022-11-23T00:27:35.724Z,7.89
2022-11-23T00:30:02.275Z,7.90
2022-11-23T00:32:32.021Z,7.91
2022-11-23T00:34:58.545Z,7.92
2022-11-23T00:37:25.422Z,7.93
2022-11-23T00:39:51.977Z,7.93
2022-11-23T00:42:18.653Z,7.94
2022-11-23T00:44:45.211Z,7.96
2022-11-23T00:47:11.733Z,7.96
2022-11-23T00:49:38.306Z,7.98
2022-11-23T00:52:05.022Z,7.99
2022-11-23T00:54:31.593Z,8.00
2022-11-23T00:56:58.316Z,8.01
2022-11-23T00:59:24.886Z,8.03
2022-11-23T01:01:51.607Z,8.03
2022-11-23T01:04:18.357Z,8.04
2022-11-23T01:06:45.011Z,8.04
2022-11-23T01:09:25.085Z,8.04
2022-11-23T01:11:51.666Z,8.05
2022-11-23T01:14:18.358Z,8.04
2022-11-23T01:16:45.022Z,8.06
2022-11-23T01:19:14.320Z,8.06
2022-11-23T01:21:41.232Z,8.06
2022-11-23T02:26:39.601Z,7.94
2022-11-23T02:29:18.802Z,7.92
2022-11-23T02:31:45.340Z,7.91
2022-11-23T02:34:11.935Z,7.91
2022-11-23T02:36:54.078Z,7.89
2022-11-23T02:39:23.454Z,7.90
2022-11-23T02:41:53.099Z,7.87
2022-11-23T02:44:36.333Z,7.87
2022-11-23T02:47:04.156Z,7.87
2022-11-23T02:49:31.044Z,7.86
2022-11-23T02:51:57.837Z,7.84
2022-11-23T02:54:24.393Z,7.84
2022-11-23T02:56:51.033Z,7.84
2022-11-23T02:59:17.589Z,7.83
2022-11-23T03:01:44.131Z,7.83
2022-11-23T03:04:10.809Z,7.84
2022-11-23T03:06:37.756Z,7.83
2022-11-23T03:09:04.861Z,7.82
2022-11-23T03:11:32.130Z,7.82
2022-11-23T03:13:58.936Z,7.83
2022-11-23T03:16:25.740Z,7.83
2022-11-23T03:18:52.289Z,7.81
2022-11-23T03:21:18.816Z,7.82
2022-11-23T03:23:45.662Z,7.80
2022-11-23T03:26:13.234Z,7.79
2022-11-23T03:28:40.260Z,7.78
2022-11-23T03:31:06.805Z,7.76
2022-11-23T03:33:34.097Z,7.76
2022-11-23T03:36:00.981Z,7.75
2022-11-23T03:38:27.935Z,7.76
2022-11-23T03:40:54.582Z,7.75
2022-11-23T03:43:21.577Z,7.75
2022-11-23T03:45:49.775Z,7.74
2022-11-23T03:48:17.222Z,7.73
2022-11-23T03:50:45.069Z,7.74
2022-11-23T03:53:12.296Z,7.72
2022-11-23T03:55:39.214Z,7.72
2022-11-23T03:58:05.985Z,7.71
2022-11-23T04:00:32.558Z,7.70
2022-11-23T04:02:59.126Z,7.70
2022-11-23T04:05:28.029Z,7.70
2022-11-23T04:07:55.535Z,7.70
2022-11-23T04:10:22.321Z,7.70
2022-11-23T04:12:53.054Z,7.71
2022-11-23T04:15:20.268Z,7.71
2022-11-23T04:17:47.124Z,7.72
2022-11-23T04:20:14.174Z,7.71
2022-11-23T04:22:41.110Z,7.72
2022-11-23T04:25:08.088Z,7.72
2022-11-23T04:27:34.934Z,7.73
2022-11-23T04:30:01.468Z,7.75
2022-11-23T04:32:28.130Z,7.76
2022-11-23T04:34:54.751Z,7.76
2022-11-23T04:37:21.417Z,7.75
2022-11-23T04:39:48.390Z,7.75
2022-11-23T04:42:14.969Z,7.75
2022-11-23T04:44:41.526Z,7.75
2022-11-23T04:47:10.676Z,7.75
2022-11-23T04:49:37.227Z,7.75
2022-11-23T04:52:04.294Z,7.77
2022-11-23T04:54:30.925Z,7.75
2022-11-23T04:56:57.692Z,7.74
2022-11-23T04:59:25.234Z,7.74
2022-11-23T05:01:52.388Z,7.73
2022-11-23T05:04:19.818Z,7.72
2022-11-23T05:06:47.175Z,7.71
2022-11-23T05:09:14.146Z,7.68
2022-11-23T05:11:41.002Z,7.64
2022-11-23T05:14:07.601Z,7.59
2022-11-23T05:16:35.493Z,7.54
2022-11-23T05:19:01.975Z,7.48
2022-11-23T05:21:30.904Z,7.46
2022-11-23T05:23:57.445Z,7.45
2022-11-23T05:26:24.416Z,7.44
2022-11-23T05:28:50.976Z,7.45
2022-11-23T05:31:17.546Z,7.47
2022-11-23T05:33:44.149Z,7.50
2022-11-23T05:36:13.907Z,7.50
2022-11-23T05:38:41.538Z,7.53
2022-11-23T05:41:08.225Z,7.53
2022-11-23T05:43:36.482Z,7.55
2022-11-23T05:46:03.403Z,7.58
2022-11-23T05:48:30.100Z,7.60
2022-11-23T05:51:02.176Z,7.62
2022-11-23T05:53:31.582Z,7.65
2022-11-23T05:56:02.597Z,7.66
2022-11-23T05:58:29.368Z,7.68
2022-11-23T06:01:00.264Z,7.68
2022-11-23T06:03:29.629Z,7.70
2022-11-23T06:05:56.180Z,7.70
2022-11-23T06:08:22.959Z,7.72
2022-11-23T06:10:49.628Z,7.73
2022-11-23T06:13:16.253Z,7.72
2022-11-23T06:15:42.783Z,7.71
2022-11-23T06:18:09.945Z,7.71
2022-11-23T06:20:37.267Z,7.72
2022-11-23T06:23:03.920Z,7.71
2022-11-23T06:25:30.532Z,7.71
2022-11-23T06:28:00.551Z,7.71
2022-11-23T06:30:31.006Z,7.71
2022-11-23T06:32:58.328Z,7.70
2022-11-23T06:35:24.975Z,7.69
2022-11-23T06:37:53.774Z,7.68
2022-11-23T06:40:20.604Z,7.66
2022-11-23T06:42:47.531Z,7.67
2022-11-23T06:45:14.720Z,7.66
2022-11-23T06:47:41.375Z,7.63
2022-11-23T06:50:09.472Z,7.64
2022-11-23T06:52:36.250Z,7.63
2022-11-23T06:55:02.876Z,7.60
2022-11-23T06:57:29.607Z,7.57
2022-11-23T06:59:56.188Z,7.51
2022-11-23T07:02:22.778Z,7.48
2022-11-23T07:04:52.288Z,7.44
2022-11-23T07:07:18.919Z,7.41
2022-11-23T07:09:45.471Z,7.40
2022-11-23T07:12:12.135Z,7.39
2022-11-23T07:14:38.751Z,7.37
2022-11-23T07:17:05.288Z,7.33
2022-11-23T07:19:31.968Z,7.25
2022-11-23T07:21:58.715Z,7.20
2022-11-23T07:24:25.216Z,7.13
2022-11-23T07:26:51.853Z,7.08
2022-11-23T07:29:18.419Z,7.03
2022-11-23T07:31:45.045Z,6.99
2022-11-23T07:34:11.675Z,6.96
2022-11-23T07:36:38.533Z,6.95
2022-11-23T07:39:05.020Z,6.99
2022-11-23T07:41:31.559Z,7.04
2022-11-23T07:43:58.108Z,7.07
2022-11-23T07:46:24.744Z,7.11
2022-11-23T07:48:51.357Z,7.15
2022-11-23T07:51:19.779Z,7.20
2022-11-23T07:53:47.374Z,7.22
2022-11-23T07:56:14.012Z,7.25
2022-11-23T07:58:40.667Z,7.28
2022-11-23T08:01:08.349Z,7.32
2022-11-23T08:03:34.947Z,7.35
2022-11-23T08:06:01.557Z,7.37
2022-11-23T08:08:28.319Z,7.41
2022-11-23T08:10:54.989Z,7.44
2022-11-23T08:13:22.784Z,7.47
2022-11-23T08:15:54.808Z,7.49
2022-11-23T08:18:24.168Z,7.53
2022-11-23T08:20:50.704Z,7.56
2022-11-23T08:23:17.258Z,7.59
2022-11-23T08:25:44.052Z,7.62
2022-11-23T08:28:11.102Z,7.67
2022-11-23T08:30:38.464Z,7.70
2022-11-23T08:33:06.790Z,7.73
2022-11-23T08:35:37.717Z,7.77
2022-11-23T08:38:05.129Z,7.81
2022-11-23T08:40:32.545Z,7.87
2022-11-23T08:42:59.199Z,7.93
2022-11-23T08:45:26.544Z,7.94
2022-11-23T08:47:53.387Z,7.96
2022-11-23T08:50:21.324Z,8.04
2022-11-23T08:52:47.898Z,8.11
2022-11-23T08:55:14.679Z,8.12
2022-11-23T08:57:41.328Z,8.13
2022-11-23T09:00:08.648Z,8.16
2022-11-23T09:02:35.216Z,8.16
2022-11-23T09:05:01.761Z,8.17
2022-11-23T09:07:28.571Z,8.18
2022-11-23T09:09:55.147Z,8.19
2022-11-23T09:12:24.477Z,8.23
2022-11-23T09:14:51.041Z,8.23
2022-11-23T09:17:17.656Z,8.23
2022-11-23T09:19:44.272Z,8.24
2022-11-23T09:22:10.820Z,8.29
2022-11-23T09:24:37.641Z,8.33
2022-11-23T09:27:04.668Z,8.43
2022-11-23T09:29:31.260Z,8.47
2022-11-23T09:31:57.783Z,8.48
2022-11-23T09:34:24.313Z,8.46
2022-11-23T09:36:50.924Z,8.52
2022-11-23T09:39:17.527Z,8.70
2022-11-23T09:41:46.988Z,8.84
2022-11-23T09:44:32.939Z,8.92
2022-11-23T09:47:20.108Z,8.94
2022-11-23T09:49:52.658Z,8.94
2022-11-23T09:52:22.497Z,8.98
2022-11-23T09:54:52.761Z,9.00
2022-11-23T09:57:24.137Z,9.03
2022-11-23T10:00:04.256Z,8.99
2022-11-23T10:02:35.227Z,9.02
2022-11-23T10:05:05.951Z,9.08
2022-11-23T10:07:49.700Z,9.04
2022-11-23T10:10:37.605Z,9.08
2022-11-23T10:13:25.879Z,9.08
2022-11-23T10:16:09.142Z,9.10
2022-11-23T10:18:47.654Z,9.09
2022-11-23T10:21:51.016Z,9.11
2022-11-23T10:24:21.116Z,9.15
2022-11-23T10:26:50.156Z,9.16
2022-11-23T10:29:20.305Z,9.20
2022-11-23T10:31:52.736Z,9.21
2022-11-23T10:34:40.312Z,9.22
2022-11-23T10:37:13.321Z,9.23
2022-11-23T10:39:39.943Z,9.28
2022-11-23T10:42:24.636Z,9.30
2022-11-23T10:44:53.718Z,9.31
2022-11-23T10:47:42.929Z,9.35
2022-11-23T10:50:37.504Z,9.34
2022-11-23T10:53:09.996Z,9.29
2022-11-23T10:55:58.672Z,9.21
2022-11-23T10:58:46.004Z,9.13
2022-11-23T11:01:15.359Z,9.15
2022-11-23T11:03:42.427Z,9.22
2022-11-23T11:06:11.084Z,9.35
2022-11-23T11:09:03.001Z,9.46
2022-11-23T11:11:39.073Z,9.32
2022-11-23T11:14:15.248Z,9.22
2022-11-23T11:17:25.062Z,9.16
2022-11-23T11:19:51.635Z,9.13
2022-11-23T11:22:33.819Z,9.12
2022-11-23T11:25:01.706Z,9.18
2022-11-23T11:27:30.319Z,9.17
2022-11-23T11:30:06.477Z,9.16
2022-11-23T11:33:06.427Z,9.14
2022-11-23T11:35:36.889Z,9.13
2022-11-23T11:38:24.828Z,9.12
2022-11-23T11:40:52.709Z,9.14
2022-11-23T11:44:12.261Z,9.22
2022-11-23T11:46:45.511Z,9.26
2022-11-23T11:49:43.689Z,9.29
2022-11-23T11:52:22.248Z,9.31
2022-11-23T11:55:07.575Z,9.50
2022-11-23T11:57:52.202Z,9.57
2022-11-23T12:00:20.635Z,9.67
2022-11-23T12:03:10.110Z,9.74
2022-11-23T12:05:47.979Z,9.75
2022-11-23T12:08:35.974Z,9.74
2022-11-23T12:11:02.620Z,9.71
2022-11-23T12:13:32.974Z,9.72
2022-11-23T12:16:31.187Z,9.72
2022-11-23T12:19:11.720Z,9.75
2022-11-23T12:22:09.641Z,9.79
2022-11-23T12:24:58.261Z,9.87
2022-11-23T12:27:27.831Z,9.92
2022-11-23T12:30:18.460Z,9.99
2022-11-23T12:33:03.575Z,10.09
2022-11-23T12:35:57.602Z,10.15
2022-11-23T12:38:59.942Z,10.20
2022-11-23T12:41:44.663Z,10.18
2022-11-23T12:44:35.964Z,10.15
2022-11-23T12:51:14.911Z,10.14
2022-11-23T12:53:50.084Z,10.11
2022-11-23T12:56:45.781Z,10.12
2022-11-23T12:59:14.340Z,10.05
2022-11-23T13:01:50.976Z,10.02
2022-11-23T13:04:39.605Z,9.99
2022-11-23T13:07:43.197Z,9.95
2022-11-23T13:10:59.616Z,9.90
2022-11-23T13:14:27.633Z,9.83
2022-11-23T13:17:09.752Z,9.78
2022-11-23T13:19:42.211Z,9.74
2022-11-23T13:22:16.443Z,9.74
2022-11-23T13:25:08.577Z,9.70
2022-11-23T13:27:45.835Z,9.66
2022-11-23T13:30:59.260Z,9.67
2022-11-23T13:33:29.537Z,9.65
2022-11-23T13:36:07.124Z,9.66
2022-11-23T13:38:44.191Z,9.65
2022-11-23T13:41:33.650Z,9.63
2022-11-23T13:44:18.653Z,9.62
2022-11-23T13:46:57.792Z,9.61
2022-11-23T13:49:48.654Z,9.61
2022-11-23T13:52:33.557Z,9.59
2022-11-23T13:55:17.991Z,9.49
2022-11-23T13:57:48.555Z,9.38
2022-11-23T14:00:49.290Z,9.24
2022-11-23T14:03:51.866Z,9.10
2022-11-23T14:06:34.681Z,8.93
2022-11-23T14:09:23.817Z,8.84
2022-11-23T14:12:03.102Z,8.79
2022-11-23T14:14:55.258Z,8.72
2022-11-23T14:17:45.172Z,8.61
2022-11-23T14:20:23.879Z,8.55
2022-11-23T14:23:07.437Z,8.49
2022-11-23T14:26:16.215Z,8.42
2022-11-23T14:29:18.032Z,8.36
2022-11-23T14:32:10.909Z,8.32
2022-11-23T14:35:00.598Z,8.29
2022-11-23T14:37:45.892Z,8.29
2022-11-23T14:40:43.204Z,8.28
2022-11-23T14:43:19.008Z,8.25
2022-11-23T14:45:47.395Z,8.24
2022-11-23T14:48:27.972Z,8.23
2022-11-23T14:50:57.309Z,8.22
2022-11-23T14:53:28.566Z,8.18
2022-11-23T14:55:56.106Z,8.16
2022-11-23T14:58:25.375Z,8.15
2022-11-23T15:00:58.279Z,8.13
2022-11-23T15:06:18.332Z,8.10
2022-11-23T15:09:03.572Z,8.09
2022-11-23T15:11:33.431Z,8.08
2022-11-23T15:14:02.798Z,8.06
2022-11-23T15:16:30.057Z,8.04
2022-11-23T15:18:57.111Z,8.03
2022-11-23T15:21:27.941Z,8.03
2022-11-23T15:23:57.892Z,8.01
2022-11-23T15:29:38.083Z,7.96
2022-11-23T15:32:30.485Z,7.94
2022-11-23T15:35:02.054Z,7.94
2022-11-23T15:37:29.566Z,7.92
2022-11-23T15:39:57.079Z,7.92
2022-11-23T15:42:25.834Z,7.92
2022-11-23T15:44:54.779Z,7.90
2022-11-23T15:47:28.272Z,7.88
2022-11-23T15:50:08.356Z,7.88
2022-11-23T15:52:37.659Z,7.87
2022-11-23T15:55:12.919Z,7.86
2022-11-23T15:57:41.065Z,7.87
2022-11-23T16:00:10.037Z,7.87
2022-11-23T16:02:37.003Z,7.88
2022-11-23T16:05:14.684Z,7.88
2022-11-23T16:08:02.218Z,7.89
2022-11-23T16:10:33.688Z,7.88
2022-11-23T16:13:02.480Z,7.88
2022-11-23T16:15:38.432Z,7.89
2022-11-23T16:18:25.816Z,7.88
2022-11-23T16:20:56.564Z,7.88
2022-11-23T16:23:44.260Z,7.86
2022-11-23T16:26:12.295Z,7.89
2022-11-23T16:28:48.440Z,7.85
2022-11-23T16:31:30.320Z,7.87
2022-11-23T16:33:56.868Z,7.87
2022-11-23T16:36:27.612Z,7.88
2022-11-23T16:38:57.637Z,7.88
2022-11-23T16:41:26.228Z,7.89
2022-11-23T16:43:54.127Z,7.90
2022-11-23T16:46:21.624Z,7.90
2022-11-23T16:48:48.239Z,7.91
2022-11-23T16:51:14.744Z,7.92
2022-11-23T16:54:12.044Z,7.94
2022-11-23T16:56:29.853Z,7.95
2022-11-23T16:58:57.076Z,7.95
2022-11-23T17:01:26.366Z,7.94
2022-11-23T17:03:53.889Z,7.95
2022-11-23T17:06:23.994Z,7.97
2022-11-23T17:09:00.467Z,7.98
2022-11-23T17:11:29.787Z,7.97
2022-11-23T17:13:56.951Z,7.97
2022-11-23T17:16:25.462Z,7.98
2022-11-23T17:18:58.208Z,7.99
2022-11-23T17:21:24.675Z,8.00
2022-11-23T17:23:52.131Z,8.01
2022-11-23T17:26:37.259Z,8.00
2022-11-23T17:29:07.062Z,7.99
2022-11-23T17:31:33.954Z,8.01
2022-11-23T17:34:00.509Z,7.99
2022-11-23T17:36:27.180Z,8.00
2022-11-23T17:38:54.497Z,8.02
2022-11-23T17:41:20.987Z,8.03
2022-11-23T17:43:47.619Z,8.05
2022-11-23T17:46:21.013Z,8.03
2022-11-23T17:48:51.288Z,8.04
2022-11-23T17:51:17.877Z,8.03
2022-11-23T17:53:44.373Z,8.01
2022-11-23T17:56:21.094Z,8.00
2022-11-23T17:58:47.692Z,7.99
2022-11-23T18:01:16.140Z,7.98
2022-11-23T18:03:44.006Z,7.96
2022-11-23T18:06:21.981Z,7.95
2022-11-23T18:08:49.939Z,7.94
2022-11-23T18:11:18.010Z,7.94
2022-11-23T18:13:44.802Z,7.95
2022-11-23T18:16:11.502Z,7.94
2022-11-23T18:18:38.555Z,7.96
2022-11-23T18:21:05.982Z,7.95
2022-11-23T18:23:33.164Z,7.94
2022-11-23T18:26:01.607Z,7.92
2022-11-23T18:28:30.940Z,7.90
2022-11-23T18:30:58.122Z,7.88
2022-11-23T18:33:24.740Z,7.83
2022-11-23T18:35:51.311Z,7.80
2022-11-23T18:38:17.933Z,7.76
2022-11-23T18:40:44.541Z,7.72
2022-11-23T18:43:11.093Z,7.69
2022-11-23T18:45:37.763Z,7.65
2022-11-23T18:48:05.126Z,7.63
2022-11-23T18:50:31.720Z,7.59
2022-11-23T18:52:58.298Z,7.58
2022-11-23T18:55:24.830Z,7.55
2022-11-23T18:57:54.901Z,7.50
2022-11-23T19:00:25.156Z,7.46
2022-11-23T19:02:59.980Z,7.41
2022-11-23T19:05:30.130Z,7.37
2022-11-23T19:08:08.549Z,7.33
2022-11-23T19:10:37.718Z,7.30
2022-11-23T19:13:05.995Z,7.25
2022-11-23T19:15:33.591Z,7.21
2022-11-23T19:18:00.745Z,7.20
2022-11-23T19:20:29.415Z,7.17
2022-11-23T19:22:56.237Z,7.13
2022-11-23T19:25:22.792Z,7.11
2022-11-23T19:27:51.427Z,7.10
2022-11-23T19:30:18.220Z,7.09
2022-11-23T19:32:44.875Z,7.09
2022-11-23T19:35:11.558Z,7.07
2022-11-23T19:37:38.804Z,7.05
2022-11-23T19:40:05.976Z,7.03
2022-11-23T19:42:35.867Z,7.01
2022-11-23T19:45:03.440Z,6.99
2022-11-23T19:47:34.222Z,6.98
2022-11-23T19:50:02.363Z,6.97
2022-11-23T19:52:55.349Z,6.97
2022-11-23T19:55:16.535Z,6.93
2022-11-23T19:57:43.135Z,6.91
2022-11-23T20:00:10.451Z,6.88
2022-11-23T20:02:37.032Z,6.83
2022-11-23T20:05:03.909Z,6.82
2022-11-23T20:07:33.542Z,6.80
2022-11-23T20:10:00.167Z,6.80
2022-11-23T20:12:26.671Z,6.80
2022-11-23T20:14:53.170Z,6.82
2022-11-23T20:17:19.941Z,6.82
2022-11-23T20:19:46.565Z,6.82
2022-11-23T20:22:13.154Z,6.81
2022-11-23T20:24:39.669Z,6.78
2022-11-23T20:27:06.483Z,6.78
2022-11-23T20:29:33.151Z,6.76
2022-11-23T20:31:59.799Z,6.73
2022-11-23T20:34:26.596Z,6.69
2022-11-23T20:36:53.439Z,6.66
2022-11-23T20:39:19.950Z,6.63
2022-11-23T20:41:49.447Z,6.61
2022-11-23T20:44:16.036Z,6.58
2022-11-23T20:49:30.300Z,6.53
2022-11-23T20:51:57.332Z,6.51
2022-11-23T20:54:23.956Z,6.49
2022-11-23T20:56:50.442Z,6.50
2022-11-23T20:59:17.388Z,6.49
2022-11-23T21:01:44.064Z,6.48
2022-11-23T21:04:10.704Z,6.47
2022-11-23T21:06:39.680Z,6.46
2022-11-23T21:09:07.832Z,6.46
2022-11-23T21:11:53.043Z,6.48
2022-11-23T21:14:21.671Z,6.52
2022-11-23T21:16:53.020Z,6.55
2022-11-23T21:19:22.322Z,6.62
2022-11-23T21:21:49.434Z,6.68
2022-11-23T21:24:16.222Z,6.67
2022-11-23T21:26:42.846Z,6.65
2022-11-23T21:29:11.380Z,6.62
2022-11-23T21:31:40.567Z,6.61
2022-11-23T21:34:10.743Z,6.60
2022-11-23T21:36:39.252Z,6.57
2022-11-23T21:39:10.059Z,6.56
2022-11-23T21:41:38.140Z,6.56
2022-11-23T21:44:06.430Z,6.58
2022-11-23T21:46:33.512Z,6.58
2022-11-23T21:49:01.194Z,6.59
2022-11-23T21:51:30.167Z,6.59
2022-11-23T21:53:58.572Z,6.64
2022-11-23T21:56:26.116Z,6.67
2022-11-23T21:58:53.316Z,6.66
2022-11-23T22:01:27.989Z,6.66
2022-11-23T22:03:56.938Z,6.67
2022-11-23T22:06:24.504Z,6.69
2022-11-23T22:08:56.804Z,6.71
2022-11-23T22:11:25.642Z,6.74
2022-11-23T22:13:54.053Z,6.74
2022-11-23T22:16:24.582Z,6.74
2022-11-23T22:18:55.593Z,6.79
2022-11-23T22:21:25.434Z,6.78
2022-11-23T22:23:52.169Z,6.80
2022-11-23T22:26:20.708Z,6.80
2022-11-23T22:28:49.336Z,6.81
2022-11-23T22:31:21.520Z,6.83
2022-11-23T22:33:49.381Z,6.82
2022-11-23T22:36:19.096Z,6.81
2022-11-23T22:38:46.276Z,6.80
2022-11-23T22:41:16.451Z,6.83
2022-11-23T22:43:43.735Z,6.84
2022-11-23T22:46:12.721Z,6.86
2022-11-23T22:48:41.013Z,6.87
2022-11-23T22:51:10.000Z,6.90
2022-11-23T22:53:44.496Z,6.93
2022-11-23T22:56:19.541Z,6.98
2022-11-23T22:58:47.920Z,7.03
2022-11-23T23:01:20.199Z,7.08
2022-11-23T23:03:47.009Z,7.14
2022-11-23T23:06:21.851Z,7.20
2022-11-23T23:08:56.418Z,7.29
2022-11-23T23:11:24.254Z,7.32
2022-11-23T23:13:51.089Z,7.32
2022-11-23T23:16:17.724Z,7.32
2022-11-23T23:18:44.578Z,7.29
2022-11-23T23:21:17.328Z,7.29
2022-11-23T23:23:46.666Z,7.29
2022-11-23T23:26:16.077Z,7.27
2022-11-23T23:28:43.466Z,7.24
2022-11-23T23:31:12.363Z,7.23
2022-11-23T23:33:38.968Z,7.23
2022-11-23T23:36:23.996Z,7.24
2022-11-23T23:38:51.114Z,7.25
2022-11-23T23:41:17.618Z,7.24
2022-11-23T23:43:44.620Z,7.27
2022-11-23T23:46:13.305Z,7.26
2022-11-23T23:48:41.191Z,7.25
2022-11-23T23:51:08.731Z,7.26
2022-11-23T23:53:36.510Z,7.30
2022-11-23T23:56:06.437Z,7.28
2022-11-23T23:58:33.309Z,7.27
